sensor_id;sensor_type;location;lat;lon;timestamp;P1;durP1;ratioP1;P2;durP2;ratioP2
59872;SDS011;50750;51.636;4.948;2023-05-07T00:01:13;2.30;;;1.30;;
59872;SDS011;50750;51.636;4.948;2023-05-07T00:03:39;1.80;;;1.30;;
59872;SDS011;50750;51.636;4.948;2023-05-07T00:06:06;2.50;;;1.40;;
59872;SDS011;50750;51.636;4.948;2023-05-07T00:08:32;2.30;;;1.50;;
59872;SDS011;50750;51.636;4.948;2023-05-07T00:10:59;3.30;;;1.60;;
59872;SDS011;50750;51.636;4.948;2023-05-07T00:13:25;1.90;;;1.10;;
59872;SDS011;50750;51.636;4.948;2023-05-07T00:15:52;2.40;;;1.50;;
59872;SDS011;50750;51.636;4.948;2023-05-07T00:18:18;2.10;;;1.20;;
59872;SDS011;50750;51.636;4.948;2023-05-07T00:23:14;2.40;;;1.40;;
59872;SDS011;50750;51.636;4.948;2023-05-07T00:25:41;2.30;;;1.60;;
59872;SDS011;50750;51.636;4.948;2023-05-07T00:28:08;2.40;;;1.20;;
59872;SDS011;50750;51.636;4.948;2023-05-07T00:30:34;2.30;;;1.40;;
59872;SDS011;50750;51.636;4.948;2023-05-07T00:33:01;2.50;;;1.60;;
59872;SDS011;50750;51.636;4.948;2023-05-07T00:35:28;2.10;;;1.30;;
59872;SDS011;50750;51.636;4.948;2023-05-07T00:37:55;2.50;;;1.40;;
59872;SDS011;50750;51.636;4.948;2023-05-07T00:40:22;2.60;;;1.50;;
59872;SDS011;50750;51.636;4.948;2023-05-07T00:42:49;2.10;;;1.30;;
59872;SDS011;50750;51.636;4.948;2023-05-07T00:45:15;2.50;;;1.50;;
59872;SDS011;50750;51.636;4.948;2023-05-07T00:47:43;3.00;;;1.40;;
59872;SDS011;50750;51.636;4.948;2023-05-07T00:50:10;2.30;;;1.40;;
59872;SDS011;50750;51.636;4.948;2023-05-07T00:52:38;2.90;;;1.50;;
59872;SDS011;50750;51.636;4.948;2023-05-07T00:55:05;2.40;;;1.50;;
59872;SDS011;50750;51.636;4.948;2023-05-07T00:57:36;2.80;;;1.40;;
59872;SDS011;50750;51.636;4.948;2023-05-07T01:00:04;2.10;;;1.20;;
59872;SDS011;50750;51.636;4.948;2023-05-07T01:02:31;2.10;;;1.30;;
59872;SDS011;50750;51.636;4.948;2023-05-07T01:04:58;2.40;;;1.40;;
59872;SDS011;50750;51.636;4.948;2023-05-07T01:07:24;2.30;;;1.30;;
59872;SDS011;50750;51.636;4.948;2023-05-07T01:09:51;2.70;;;1.50;;
59872;SDS011;50750;51.636;4.948;2023-05-07T01:12:18;4.10;;;1.50;;
59872;SDS011;50750;51.636;4.948;2023-05-07T01:14:45;2.20;;;1.30;;
59872;SDS011;50750;51.636;4.948;2023-05-07T01:17:11;2.50;;;1.50;;
59872;SDS011;50750;51.636;4.948;2023-05-07T01:19:38;2.20;;;1.30;;
59872;SDS011;50750;51.636;4.948;2023-05-07T01:22:07;3.00;;;1.40;;
59872;SDS011;50750;51.636;4.948;2023-05-07T01:24:36;2.30;;;1.40;;
59872;SDS011;50750;51.636;4.948;2023-05-07T01:27:04;2.40;;;1.30;;
59872;SDS011;50750;51.636;4.948;2023-05-07T01:29:30;2.00;;;1.30;;
59872;SDS011;50750;51.636;4.948;2023-05-07T01:31:57;2.00;;;1.30;;
59872;SDS011;50750;51.636;4.948;2023-05-07T01:34:27;1.70;;;1.10;;
59872;SDS011;50750;51.636;4.948;2023-05-07T01:36:56;2.70;;;1.10;;
59872;SDS011;50750;51.636;4.948;2023-05-07T01:39:25;1.90;;;1.30;;
59872;SDS011;50750;51.636;4.948;2023-05-07T01:41:57;2.00;;;1.30;;
59872;SDS011;50750;51.636;4.948;2023-05-07T01:44:26;1.70;;;1.20;;
59872;SDS011;50750;51.636;4.948;2023-05-07T01:46:53;3.00;;;1.40;;
59872;SDS011;50750;51.636;4.948;2023-05-07T01:49:21;2.00;;;1.20;;
59872;SDS011;50750;51.636;4.948;2023-05-07T01:51:47;2.00;;;1.20;;
59872;SDS011;50750;51.636;4.948;2023-05-07T01:54:14;2.10;;;1.30;;
59872;SDS011;50750;51.636;4.948;2023-05-07T01:56:41;2.70;;;1.30;;
59872;SDS011;50750;51.636;4.948;2023-05-07T01:59:08;2.30;;;1.50;;
59872;SDS011;50750;51.636;4.948;2023-05-07T02:01:34;2.10;;;1.30;;
59872;SDS011;50750;51.636;4.948;2023-05-07T02:04:00;1.80;;;1.10;;
59872;SDS011;50750;51.636;4.948;2023-05-07T02:06:27;1.70;;;1.10;;
59872;SDS011;50750;51.636;4.948;2023-05-07T02:08:54;2.00;;;1.50;;
59872;SDS011;50750;51.636;4.948;2023-05-07T02:11:20;2.10;;;1.30;;
59872;SDS011;50750;51.636;4.948;2023-05-07T02:13:47;1.80;;;1.30;;
59872;SDS011;50750;51.636;4.948;2023-05-07T02:16:13;1.60;;;1.10;;
59872;SDS011;50750;51.636;4.948;2023-05-07T02:18:40;2.30;;;1.30;;
59872;SDS011;50750;51.636;4.948;2023-05-07T02:21:06;2.30;;;1.40;;
59872;SDS011;50750;51.636;4.948;2023-05-07T02:23:33;2.20;;;1.40;;
59872;SDS011;50750;51.636;4.948;2023-05-07T02:25:59;3.20;;;1.30;;
59872;SDS011;50750;51.636;4.948;2023-05-07T02:28:26;2.30;;;1.40;;
59872;SDS011;50750;51.636;4.948;2023-05-07T02:30:52;2.30;;;1.40;;
59872;SDS011;50750;51.636;4.948;2023-05-07T02:33:19;2.40;;;1.40;;
59872;SDS011;50750;51.636;4.948;2023-05-07T02:35:45;2.10;;;1.20;;
59872;SDS011;50750;51.636;4.948;2023-05-07T02:38:12;2.60;;;1.40;;
59872;SDS011;50750;51.636;4.948;2023-05-07T02:40:38;2.00;;;1.30;;
59872;SDS011;50750;51.636;4.948;2023-05-07T02:43:05;2.50;;;1.30;;
59872;SDS011;50750;51.636;4.948;2023-05-07T02:45:32;2.00;;;1.20;;
59872;SDS011;50750;51.636;4.948;2023-05-07T02:47:59;2.20;;;1.30;;
59872;SDS011;50750;51.636;4.948;2023-05-07T02:50:26;2.60;;;1.40;;
59872;SDS011;50750;51.636;4.948;2023-05-07T02:52:53;2.00;;;1.30;;
59872;SDS011;50750;51.636;4.948;2023-05-07T02:55:20;2.30;;;1.30;;
59872;SDS011;50750;51.636;4.948;2023-05-07T02:57:46;2.10;;;1.30;;
59872;SDS011;50750;51.636;4.948;2023-05-07T03:00:13;2.30;;;1.30;;
59872;SDS011;50750;51.636;4.948;2023-05-07T03:02:41;1.90;;;1.20;;
59872;SDS011;50750;51.636;4.948;2023-05-07T03:05:08;2.30;;;1.40;;
59872;SDS011;50750;51.636;4.948;2023-05-07T03:07:35;2.60;;;1.60;;
59872;SDS011;50750;51.636;4.948;2023-05-07T03:10:03;2.00;;;1.40;;
59872;SDS011;50750;51.636;4.948;2023-05-07T03:12:31;2.30;;;1.40;;
59872;SDS011;50750;51.636;4.948;2023-05-07T03:14:57;2.20;;;1.40;;
59872;SDS011;50750;51.636;4.948;2023-05-07T03:17:24;2.40;;;1.40;;
59872;SDS011;50750;51.636;4.948;2023-05-07T03:19:50;2.60;;;1.50;;
59872;SDS011;50750;51.636;4.948;2023-05-07T03:22:17;2.30;;;1.40;;
59872;SDS011;50750;51.636;4.948;2023-05-07T03:24:43;2.20;;;1.40;;
59872;SDS011;50750;51.636;4.948;2023-05-07T03:27:10;2.90;;;1.70;;
59872;SDS011;50750;51.636;4.948;2023-05-07T03:29:36;2.40;;;1.50;;
59872;SDS011;50750;51.636;4.948;2023-05-07T03:32:03;2.30;;;1.50;;
59872;SDS011;50750;51.636;4.948;2023-05-07T03:34:30;2.70;;;1.60;;
59872;SDS011;50750;51.636;4.948;2023-05-07T03:36:56;2.90;;;1.50;;
59872;SDS011;50750;51.636;4.948;2023-05-07T03:39:23;3.20;;;1.50;;
59872;SDS011;50750;51.636;4.948;2023-05-07T03:41:49;2.30;;;1.40;;
59872;SDS011;50750;51.636;4.948;2023-05-07T03:44:16;1.90;;;1.30;;
59872;SDS011;50750;51.636;4.948;2023-05-07T03:46:42;2.30;;;1.40;;
59872;SDS011;50750;51.636;4.948;2023-05-07T03:49:09;2.50;;;1.50;;
59872;SDS011;50750;51.636;4.948;2023-05-07T03:51:36;2.60;;;1.40;;
59872;SDS011;50750;51.636;4.948;2023-05-07T03:54:03;2.30;;;1.60;;
59872;SDS011;50750;51.636;4.948;2023-05-07T03:56:29;2.20;;;1.30;;
59872;SDS011;50750;51.636;4.948;2023-05-07T03:58:57;2.40;;;1.50;;
59872;SDS011;50750;51.636;4.948;2023-05-07T04:01:23;2.70;;;1.50;;
59872;SDS011;50750;51.636;4.948;2023-05-07T04:03:50;2.50;;;1.40;;
59872;SDS011;50750;51.636;4.948;2023-05-07T04:06:16;2.30;;;1.50;;
59872;SDS011;50750;51.636;4.948;2023-05-07T04:08:45;2.60;;;1.50;;
59872;SDS011;50750;51.636;4.948;2023-05-07T04:11:12;2.60;;;1.40;;
59872;SDS011;50750;51.636;4.948;2023-05-07T04:13:38;2.20;;;1.50;;
59872;SDS011;50750;51.636;4.948;2023-05-07T04:16:05;2.60;;;1.50;;
59872;SDS011;50750;51.636;4.948;2023-05-07T04:18:32;2.10;;;1.30;;
59872;SDS011;50750;51.636;4.948;2023-05-07T04:20:58;2.20;;;1.30;;
59872;SDS011;50750;51.636;4.948;2023-05-07T04:23:25;1.90;;;1.30;;
59872;SDS011;50750;51.636;4.948;2023-05-07T04:25:51;2.60;;;1.40;;
59872;SDS011;50750;51.636;4.948;2023-05-07T04:28:18;2.40;;;1.40;;
59872;SDS011;50750;51.636;4.948;2023-05-07T04:30:45;2.30;;;1.40;;
59872;SDS011;50750;51.636;4.948;2023-05-07T04:33:11;2.40;;;1.40;;
59872;SDS011;50750;51.636;4.948;2023-05-07T04:35:39;2.20;;;1.40;;
59872;SDS011;50750;51.636;4.948;2023-05-07T04:38:06;2.10;;;1.50;;
59872;SDS011;50750;51.636;4.948;2023-05-07T04:40:32;2.30;;;1.40;;
59872;SDS011;50750;51.636;4.948;2023-05-07T04:42:59;2.20;;;1.30;;
59872;SDS011;50750;51.636;4.948;2023-05-07T04:45:25;2.60;;;1.50;;
59872;SDS011;50750;51.636;4.948;2023-05-07T04:47:52;2.20;;;1.40;;
59872;SDS011;50750;51.636;4.948;2023-05-07T04:50:18;2.70;;;1.40;;
59872;SDS011;50750;51.636;4.948;2023-05-07T04:52:46;2.10;;;1.50;;
59872;SDS011;50750;51.636;4.948;2023-05-07T04:55:13;2.20;;;1.30;;
59872;SDS011;50750;51.636;4.948;2023-05-07T04:57:39;2.80;;;1.60;;
59872;SDS011;50750;51.636;4.948;2023-05-07T05:00:07;2.80;;;1.30;;
59872;SDS011;50750;51.636;4.948;2023-05-07T05:02:36;2.30;;;1.40;;
59872;SDS011;50750;51.636;4.948;2023-05-07T05:05:03;2.40;;;1.50;;
59872;SDS011;50750;51.636;4.948;2023-05-07T05:07:30;2.20;;;1.40;;
59872;SDS011;50750;51.636;4.948;2023-05-07T05:09:56;2.30;;;1.40;;
59872;SDS011;50750;51.636;4.948;2023-05-07T05:12:23;2.30;;;1.50;;
59872;SDS011;50750;51.636;4.948;2023-05-07T05:14:50;2.50;;;1.60;;
59872;SDS011;50750;51.636;4.948;2023-05-07T05:17:17;2.20;;;1.40;;
59872;SDS011;50750;51.636;4.948;2023-05-07T05:19:43;2.00;;;1.40;;
59872;SDS011;50750;51.636;4.948;2023-05-07T05:22:10;2.90;;;1.40;;
59872;SDS011;50750;51.636;4.948;2023-05-07T05:24:36;2.10;;;1.40;;
59872;SDS011;50750;51.636;4.948;2023-05-07T05:27:03;2.20;;;1.50;;
59872;SDS011;50750;51.636;4.948;2023-05-07T05:29:30;2.50;;;1.50;;
59872;SDS011;50750;51.636;4.948;2023-05-07T05:31:57;2.60;;;1.60;;
59872;SDS011;50750;51.636;4.948;2023-05-07T05:34:24;2.90;;;1.30;;
59872;SDS011;50750;51.636;4.948;2023-05-07T05:36:50;2.60;;;1.50;;
59872;SDS011;50750;51.636;4.948;2023-05-07T05:39:17;2.00;;;1.30;;
59872;SDS011;50750;51.636;4.948;2023-05-07T05:41:43;2.20;;;1.40;;
59872;SDS011;50750;51.636;4.948;2023-05-07T05:44:10;2.40;;;1.70;;
59872;SDS011;50750;51.636;4.948;2023-05-07T05:46:36;2.20;;;1.30;;
59872;SDS011;50750;51.636;4.948;2023-05-07T05:49:03;2.90;;;1.40;;
59872;SDS011;50750;51.636;4.948;2023-05-07T05:51:30;3.00;;;1.70;;
59872;SDS011;50750;51.636;4.948;2023-05-07T05:53:56;2.00;;;1.30;;
59872;SDS011;50750;51.636;4.948;2023-05-07T05:56:23;2.20;;;1.40;;
59872;SDS011;50750;51.636;4.948;2023-05-07T05:58:49;2.30;;;1.60;;
59872;SDS011;50750;51.636;4.948;2023-05-07T06:01:16;2.50;;;1.50;;
59872;SDS011;50750;51.636;4.948;2023-05-07T06:03:44;2.40;;;1.60;;
59872;SDS011;50750;51.636;4.948;2023-05-07T06:06:11;2.50;;;1.40;;
59872;SDS011;50750;51.636;4.948;2023-05-07T06:08:37;2.30;;;1.50;;
59872;SDS011;50750;51.636;4.948;2023-05-07T06:11:03;1.80;;;1.20;;
59872;SDS011;50750;51.636;4.948;2023-05-07T06:13:30;2.50;;;1.60;;
59872;SDS011;50750;51.636;4.948;2023-05-07T06:15:56;2.10;;;1.40;;
59872;SDS011;50750;51.636;4.948;2023-05-07T06:18:23;2.70;;;1.50;;
59872;SDS011;50750;51.636;4.948;2023-05-07T06:20:49;2.00;;;1.30;;
59872;SDS011;50750;51.636;4.948;2023-05-07T06:23:16;2.40;;;1.50;;
59872;SDS011;50750;51.636;4.948;2023-05-07T06:25:47;2.40;;;1.50;;
59872;SDS011;50750;51.636;4.948;2023-05-07T06:28:15;2.40;;;1.60;;
59872;SDS011;50750;51.636;4.948;2023-05-07T06:30:41;2.20;;;1.50;;
59872;SDS011;50750;51.636;4.948;2023-05-07T06:33:08;2.50;;;1.50;;
59872;SDS011;50750;51.636;4.948;2023-05-07T06:35:35;2.30;;;1.60;;
59872;SDS011;50750;51.636;4.948;2023-05-07T06:38:01;2.40;;;1.60;;
59872;SDS011;50750;51.636;4.948;2023-05-07T06:40:28;2.90;;;1.70;;
59872;SDS011;50750;51.636;4.948;2023-05-07T06:42:54;2.30;;;1.40;;
59872;SDS011;50750;51.636;4.948;2023-05-07T06:45:21;2.10;;;1.50;;
59872;SDS011;50750;51.636;4.948;2023-05-07T06:47:47;2.40;;;1.70;;
59872;SDS011;50750;51.636;4.948;2023-05-07T06:50:14;2.30;;;1.50;;
59872;SDS011;50750;51.636;4.948;2023-05-07T06:52:42;2.50;;;1.60;;
59872;SDS011;50750;51.636;4.948;2023-05-07T06:55:09;2.60;;;1.80;;
59872;SDS011;50750;51.636;4.948;2023-05-07T06:57:37;3.20;;;1.60;;
59872;SDS011;50750;51.636;4.948;2023-05-07T07:00:04;2.40;;;1.40;;
59872;SDS011;50750;51.636;4.948;2023-05-07T07:02:35;2.50;;;1.60;;
59872;SDS011;50750;51.636;4.948;2023-05-07T07:05:01;2.30;;;1.30;;
59872;SDS011;50750;51.636;4.948;2023-05-07T07:07:28;2.40;;;1.50;;
59872;SDS011;50750;51.636;4.948;2023-05-07T07:09:54;2.40;;;1.40;;
59872;SDS011;50750;51.636;4.948;2023-05-07T07:12:21;2.30;;;1.60;;
59872;SDS011;50750;51.636;4.948;2023-05-07T07:14:48;2.40;;;1.50;;
59872;SDS011;50750;51.636;4.948;2023-05-07T07:17:15;3.40;;;1.70;;
59872;SDS011;50750;51.636;4.948;2023-05-07T07:19:41;2.30;;;1.60;;
59872;SDS011;50750;51.636;4.948;2023-05-07T07:22:08;2.20;;;1.60;;
59872;SDS011;50750;51.636;4.948;2023-05-07T07:24:34;2.40;;;1.60;;
59872;SDS011;50750;51.636;4.948;2023-05-07T07:27:01;2.50;;;1.70;;
59872;SDS011;50750;51.636;4.948;2023-05-07T07:29:27;3.20;;;1.50;;
59872;SDS011;50750;51.636;4.948;2023-05-07T07:31:54;2.50;;;1.60;;
59872;SDS011;50750;51.636;4.948;2023-05-07T07:34:21;2.30;;;1.50;;
59872;SDS011;50750;51.636;4.948;2023-05-07T07:36:47;2.00;;;1.50;;
59872;SDS011;50750;51.636;4.948;2023-05-07T07:39:14;2.60;;;1.60;;
59872;SDS011;50750;51.636;4.948;2023-05-07T07:41:40;3.40;;;1.90;;
59872;SDS011;50750;51.636;4.948;2023-05-07T07:44:07;2.60;;;1.60;;
59872;SDS011;50750;51.636;4.948;2023-05-07T07:46:34;2.50;;;1.60;;
59872;SDS011;50750;51.636;4.948;2023-05-07T07:49:01;2.90;;;1.80;;
59872;SDS011;50750;51.636;4.948;2023-05-07T07:51:27;3.40;;;1.80;;
59872;SDS011;50750;51.636;4.948;2023-05-07T07:53:54;2.70;;;1.70;;
59872;SDS011;50750;51.636;4.948;2023-05-07T07:56:21;2.50;;;1.50;;
59872;SDS011;50750;51.636;4.948;2023-05-07T07:58:48;2.70;;;1.70;;
59872;SDS011;50750;51.636;4.948;2023-05-07T08:01:15;2.40;;;1.60;;
59872;SDS011;50750;51.636;4.948;2023-05-07T08:03:44;3.00;;;1.90;;
59872;SDS011;50750;51.636;4.948;2023-05-07T08:06:10;2.10;;;1.30;;
59872;SDS011;50750;51.636;4.948;2023-05-07T08:08:37;2.50;;;1.70;;
59872;SDS011;50750;51.636;4.948;2023-05-07T08:11:04;2.50;;;1.50;;
59872;SDS011;50750;51.636;4.948;2023-05-07T08:13:30;2.40;;;1.40;;
59872;SDS011;50750;51.636;4.948;2023-05-07T08:15:57;3.40;;;1.70;;
59872;SDS011;50750;51.636;4.948;2023-05-07T08:18:24;2.80;;;1.50;;
59872;SDS011;50750;51.636;4.948;2023-05-07T08:20:51;2.40;;;1.60;;
59872;SDS011;50750;51.636;4.948;2023-05-07T08:23:18;2.20;;;1.30;;
59872;SDS011;50750;51.636;4.948;2023-05-07T08:25:44;2.60;;;1.50;;
59872;SDS011;50750;51.636;4.948;2023-05-07T08:28:11;2.40;;;1.60;;
59872;SDS011;50750;51.636;4.948;2023-05-07T08:30:37;2.30;;;1.40;;
59872;SDS011;50750;51.636;4.948;2023-05-07T08:33:04;2.30;;;1.60;;
59872;SDS011;50750;51.636;4.948;2023-05-07T08:35:31;2.40;;;1.50;;
59872;SDS011;50750;51.636;4.948;2023-05-07T08:37:58;2.50;;;1.60;;
59872;SDS011;50750;51.636;4.948;2023-05-07T08:40:25;2.60;;;1.60;;
59872;SDS011;50750;51.636;4.948;2023-05-07T08:42:53;2.20;;;1.40;;
59872;SDS011;50750;51.636;4.948;2023-05-07T08:45:20;3.40;;;2.30;;
59872;SDS011;50750;51.636;4.948;2023-05-07T08:47:51;3.30;;;1.90;;
59872;SDS011;50750;51.636;4.948;2023-05-07T08:50:21;3.70;;;1.80;;
59872;SDS011;50750;51.636;4.948;2023-05-07T08:52:48;2.50;;;1.70;;
59872;SDS011;50750;51.636;4.948;2023-05-07T08:55:15;2.30;;;1.60;;
59872;SDS011;50750;51.636;4.948;2023-05-07T08:57:41;2.40;;;1.60;;
59872;SDS011;50750;51.636;4.948;2023-05-07T09:00:08;2.50;;;1.60;;
59872;SDS011;50750;51.636;4.948;2023-05-07T09:02:36;2.00;;;1.30;;
59872;SDS011;50750;51.636;4.948;2023-05-07T09:05:03;2.20;;;1.40;;
59872;SDS011;50750;51.636;4.948;2023-05-07T09:07:30;2.90;;;1.70;;
59872;SDS011;50750;51.636;4.948;2023-05-07T09:09:57;2.80;;;1.70;;
59872;SDS011;50750;51.636;4.948;2023-05-07T09:12:24;2.20;;;1.50;;
59872;SDS011;50750;51.636;4.948;2023-05-07T09:14:50;2.50;;;1.80;;
59872;SDS011;50750;51.636;4.948;2023-05-07T09:17:17;2.70;;;1.80;;
59872;SDS011;50750;51.636;4.948;2023-05-07T09:19:44;2.60;;;1.60;;
59872;SDS011;50750;51.636;4.948;2023-05-07T09:22:14;2.70;;;1.60;;
59872;SDS011;50750;51.636;4.948;2023-05-07T09:24:40;2.70;;;1.70;;
59872;SDS011;50750;51.636;4.948;2023-05-07T09:27:07;2.60;;;1.60;;
59872;SDS011;50750;51.636;4.948;2023-05-07T09:29:36;2.50;;;1.60;;
59872;SDS011;50750;51.636;4.948;2023-05-07T09:32:03;2.70;;;1.60;;
59872;SDS011;50750;51.636;4.948;2023-05-07T09:34:31;2.10;;;1.40;;
59872;SDS011;50750;51.636;4.948;2023-05-07T09:37:01;2.80;;;1.70;;
59872;SDS011;50750;51.636;4.948;2023-05-07T09:39:49;3.80;;;2.60;;
59872;SDS011;50750;51.636;4.948;2023-05-07T09:42:15;2.20;;;1.40;;
59872;SDS011;50750;51.636;4.948;2023-05-07T09:44:45;2.10;;;1.50;;
59872;SDS011;50750;51.636;4.948;2023-05-07T09:47:11;2.20;;;1.40;;
59872;SDS011;50750;51.636;4.948;2023-05-07T09:49:43;2.60;;;1.50;;
59872;SDS011;50750;51.636;4.948;2023-05-07T09:52:14;2.30;;;1.50;;
59872;SDS011;50750;51.636;4.948;2023-05-07T09:54:42;2.50;;;1.50;;
59872;SDS011;50750;51.636;4.948;2023-05-07T09:57:10;2.60;;;1.80;;
59872;SDS011;50750;51.636;4.948;2023-05-07T09:59:38;3.20;;;2.40;;
59872;SDS011;50750;51.636;4.948;2023-05-07T10:02:04;2.60;;;1.80;;
59872;SDS011;50750;51.636;4.948;2023-05-07T10:04:32;2.40;;;1.60;;
59872;SDS011;50750;51.636;4.948;2023-05-07T10:07:00;2.40;;;1.50;;
59872;SDS011;50750;51.636;4.948;2023-05-07T10:09:29;2.10;;;1.40;;
59872;SDS011;50750;51.636;4.948;2023-05-07T10:11:56;2.30;;;1.50;;
59872;SDS011;50750;51.636;4.948;2023-05-07T10:14:24;2.40;;;1.50;;
59872;SDS011;50750;51.636;4.948;2023-05-07T10:16:51;2.50;;;1.60;;
59872;SDS011;50750;51.636;4.948;2023-05-07T10:19:21;2.30;;;1.50;;
59872;SDS011;50750;51.636;4.948;2023-05-07T10:21:54;2.80;;;1.60;;
59872;SDS011;50750;51.636;4.948;2023-05-07T10:24:26;2.70;;;1.80;;
59872;SDS011;50750;51.636;4.948;2023-05-07T10:26:57;2.60;;;1.50;;
59872;SDS011;50750;51.636;4.948;2023-05-07T10:32:42;2.50;;;1.70;;
59872;SDS011;50750;51.636;4.948;2023-05-07T10:35:14;2.10;;;1.50;;
59872;SDS011;50750;51.636;4.948;2023-05-07T10:37:45;2.60;;;1.60;;
59872;SDS011;50750;51.636;4.948;2023-05-07T10:40:12;2.20;;;1.50;;
59872;SDS011;50750;51.636;4.948;2023-05-07T10:42:52;3.00;;;2.10;;
59872;SDS011;50750;51.636;4.948;2023-05-07T10:45:19;3.30;;;2.10;;
59872;SDS011;50750;51.636;4.948;2023-05-07T10:48:05;3.10;;;1.90;;
59872;SDS011;50750;51.636;4.948;2023-05-07T10:50:37;2.40;;;1.60;;
59872;SDS011;50750;51.636;4.948;2023-05-07T10:55:46;3.30;;;2.00;;
59872;SDS011;50750;51.636;4.948;2023-05-07T11:00:49;2.70;;;2.00;;
59872;SDS011;50750;51.636;4.948;2023-05-07T11:03:15;2.70;;;1.90;;
59872;SDS011;50750;51.636;4.948;2023-05-07T11:05:42;2.30;;;1.70;;
59872;SDS011;50750;51.636;4.948;2023-05-07T11:08:09;2.20;;;1.60;;
59872;SDS011;50750;51.636;4.948;2023-05-07T11:10:54;2.40;;;1.70;;
59872;SDS011;50750;51.636;4.948;2023-05-07T11:13:42;2.70;;;1.70;;
59872;SDS011;50750;51.636;4.948;2023-05-07T11:16:19;2.50;;;1.70;;
59872;SDS011;50750;51.636;4.948;2023-05-07T11:18:53;2.30;;;1.50;;
59872;SDS011;50750;51.636;4.948;2023-05-07T11:24:17;2.20;;;1.60;;
59872;SDS011;50750;51.636;4.948;2023-05-07T11:26:48;3.10;;;1.50;;
59872;SDS011;50750;51.636;4.948;2023-05-07T11:29:17;3.10;;;1.80;;
59872;SDS011;50750;51.636;4.948;2023-05-07T11:31:48;2.60;;;1.60;;
59872;SDS011;50750;51.636;4.948;2023-05-07T11:34:20;2.20;;;1.50;;
59872;SDS011;50750;51.636;4.948;2023-05-07T11:36:48;2.10;;;1.30;;
59872;SDS011;50750;51.636;4.948;2023-05-07T11:41:51;2.70;;;1.70;;
59872;SDS011;50750;51.636;4.948;2023-05-07T11:44:17;2.70;;;1.70;;
59872;SDS011;50750;51.636;4.948;2023-05-07T11:46:44;2.50;;;1.60;;
59872;SDS011;50750;51.636;4.948;2023-05-07T11:49:11;2.90;;;1.40;;
59872;SDS011;50750;51.636;4.948;2023-05-07T11:51:38;2.30;;;1.40;;
59872;SDS011;50750;51.636;4.948;2023-05-07T11:54:06;2.30;;;1.60;;
59872;SDS011;50750;51.636;4.948;2023-05-07T11:56:37;2.10;;;1.50;;
59872;SDS011;50750;51.636;4.948;2023-05-07T11:59:04;2.50;;;1.50;;
59872;SDS011;50750;51.636;4.948;2023-05-07T12:01:31;3.10;;;1.60;;
59872;SDS011;50750;51.636;4.948;2023-05-07T12:03:57;2.00;;;1.40;;
59872;SDS011;50750;51.636;4.948;2023-05-07T12:06:24;2.80;;;1.40;;
59872;SDS011;50750;51.636;4.948;2023-05-07T12:08:51;2.40;;;1.60;;
59872;SDS011;50750;51.636;4.948;2023-05-07T12:11:23;2.90;;;1.70;;
59872;SDS011;50750;51.636;4.948;2023-05-07T12:13:51;2.30;;;1.50;;
59872;SDS011;50750;51.636;4.948;2023-05-07T12:16:22;2.40;;;1.70;;
59872;SDS011;50750;51.636;4.948;2023-05-07T12:18:49;2.80;;;1.60;;
59872;SDS011;50750;51.636;4.948;2023-05-07T12:21:16;2.30;;;1.50;;
59872;SDS011;50750;51.636;4.948;2023-05-07T12:23:43;2.60;;;1.60;;
59872;SDS011;50750;51.636;4.948;2023-05-07T12:26:10;2.30;;;1.40;;
59872;SDS011;50750;51.636;4.948;2023-05-07T12:28:37;2.40;;;1.50;;
59872;SDS011;50750;51.636;4.948;2023-05-07T12:31:05;3.00;;;1.90;;
59872;SDS011;50750;51.636;4.948;2023-05-07T12:33:33;2.90;;;2.00;;
59872;SDS011;50750;51.636;4.948;2023-05-07T12:36:05;3.00;;;1.70;;
59872;SDS011;50750;51.636;4.948;2023-05-07T12:38:36;3.00;;;1.90;;
59872;SDS011;50750;51.636;4.948;2023-05-07T12:41:05;3.10;;;2.10;;
59872;SDS011;50750;51.636;4.948;2023-05-07T12:43:33;3.20;;;2.00;;
59872;SDS011;50750;51.636;4.948;2023-05-07T12:46:01;3.20;;;1.90;;
59872;SDS011;50750;51.636;4.948;2023-05-07T12:48:30;3.10;;;2.00;;
59872;SDS011;50750;51.636;4.948;2023-05-07T12:50:57;3.20;;;2.00;;
59872;SDS011;50750;51.636;4.948;2023-05-07T12:53:26;2.30;;;1.60;;
59872;SDS011;50750;51.636;4.948;2023-05-07T12:55:54;2.70;;;1.60;;
59872;SDS011;50750;51.636;4.948;2023-05-07T13:00:56;2.70;;;1.60;;
59872;SDS011;50750;51.636;4.948;2023-05-07T13:03:26;2.40;;;1.60;;
59872;SDS011;50750;51.636;4.948;2023-05-07T13:05:55;3.00;;;1.60;;
59872;SDS011;50750;51.636;4.948;2023-05-07T13:08:31;3.50;;;1.90;;
59872;SDS011;50750;51.636;4.948;2023-05-07T13:11:10;2.90;;;1.60;;
59872;SDS011;50750;51.636;4.948;2023-05-07T13:13:37;2.80;;;1.50;;
59872;SDS011;50750;51.636;4.948;2023-05-07T13:16:07;2.90;;;2.00;;
59872;SDS011;50750;51.636;4.948;2023-05-07T13:18:35;2.70;;;2.00;;
59872;SDS011;50750;51.636;4.948;2023-05-07T13:21:02;2.50;;;1.70;;
59872;SDS011;50750;51.636;4.948;2023-05-07T13:23:29;3.40;;;2.00;;
59872;SDS011;50750;51.636;4.948;2023-05-07T13:25:55;2.40;;;1.60;;
59872;SDS011;50750;51.636;4.948;2023-05-07T13:28:23;3.80;;;2.00;;
59872;SDS011;50750;51.636;4.948;2023-05-07T13:30:50;2.50;;;1.70;;
59872;SDS011;50750;51.636;4.948;2023-05-07T13:33:18;2.80;;;1.60;;
59872;SDS011;50750;51.636;4.948;2023-05-07T13:35:45;2.80;;;1.80;;
59872;SDS011;50750;51.636;4.948;2023-05-07T13:38:12;3.70;;;1.80;;
59872;SDS011;50750;51.636;4.948;2023-05-07T13:40:38;2.40;;;1.70;;
59872;SDS011;50750;51.636;4.948;2023-05-07T13:43:05;3.30;;;1.90;;
59872;SDS011;50750;51.636;4.948;2023-05-07T13:45:32;2.30;;;1.60;;
59872;SDS011;50750;51.636;4.948;2023-05-07T13:47:58;3.20;;;1.60;;
59872;SDS011;50750;51.636;4.948;2023-05-07T13:50:25;3.10;;;2.00;;
59872;SDS011;50750;51.636;4.948;2023-05-07T13:52:53;2.90;;;1.70;;
59872;SDS011;50750;51.636;4.948;2023-05-07T13:55:20;2.50;;;1.80;;
59872;SDS011;50750;51.636;4.948;2023-05-07T13:57:51;3.20;;;1.80;;
59872;SDS011;50750;51.636;4.948;2023-05-07T14:00:24;2.80;;;1.80;;
59872;SDS011;50750;51.636;4.948;2023-05-07T14:02:52;2.60;;;1.80;;
59872;SDS011;50750;51.636;4.948;2023-05-07T14:05:20;2.80;;;1.90;;
59872;SDS011;50750;51.636;4.948;2023-05-07T14:07:47;2.80;;;1.60;;
59872;SDS011;50750;51.636;4.948;2023-05-07T14:10:15;2.90;;;1.70;;
59872;SDS011;50750;51.636;4.948;2023-05-07T14:12:41;2.40;;;1.80;;
59872;SDS011;50750;51.636;4.948;2023-05-07T14:15:08;3.40;;;2.00;;
59872;SDS011;50750;51.636;4.948;2023-05-07T14:17:35;2.80;;;1.70;;
59872;SDS011;50750;51.636;4.948;2023-05-07T14:20:02;3.20;;;1.90;;
59872;SDS011;50750;51.636;4.948;2023-05-07T14:22:29;2.80;;;1.90;;
59872;SDS011;50750;51.636;4.948;2023-05-07T14:24:55;3.70;;;2.00;;
59872;SDS011;50750;51.636;4.948;2023-05-07T14:27:22;3.40;;;2.00;;
59872;SDS011;50750;51.636;4.948;2023-05-07T14:29:48;3.30;;;2.10;;
59872;SDS011;50750;51.636;4.948;2023-05-07T14:32:20;3.00;;;2.20;;
59872;SDS011;50750;51.636;4.948;2023-05-07T14:34:46;3.10;;;2.20;;
59872;SDS011;50750;51.636;4.948;2023-05-07T14:37:13;3.30;;;2.30;;
59872;SDS011;50750;51.636;4.948;2023-05-07T14:39:40;4.50;;;2.20;;
59872;SDS011;50750;51.636;4.948;2023-05-07T14:42:06;4.20;;;2.10;;
59872;SDS011;50750;51.636;4.948;2023-05-07T14:44:37;2.70;;;2.10;;
59872;SDS011;50750;51.636;4.948;2023-05-07T14:47:03;3.80;;;2.20;;
59872;SDS011;50750;51.636;4.948;2023-05-07T14:49:30;3.80;;;2.20;;
59872;SDS011;50750;51.636;4.948;2023-05-07T14:51:59;2.80;;;2.00;;
59872;SDS011;50750;51.636;4.948;2023-05-07T14:54:28;3.30;;;2.30;;
59872;SDS011;50750;51.636;4.948;2023-05-07T14:56:55;4.00;;;2.00;;
59872;SDS011;50750;51.636;4.948;2023-05-07T14:59:22;4.40;;;2.30;;
59872;SDS011;50750;51.636;4.948;2023-05-07T15:01:51;3.80;;;2.40;;
59872;SDS011;50750;51.636;4.948;2023-05-07T15:04:17;3.80;;;2.30;;
59872;SDS011;50750;51.636;4.948;2023-05-07T15:06:44;4.10;;;2.30;;
59872;SDS011;50750;51.636;4.948;2023-05-07T15:09:12;4.20;;;2.30;;